createdAt,value
2022-09-07T00:00:54.270Z,15.41
2022-09-07T00:01:54.336Z,15.40
2022-09-07T00:02:54.371Z,15.40
2022-09-07T00:03:54.289Z,15.39
2022-09-07T00:04:54.243Z,15.38
2022-09-07T00:05:54.205Z,15.37
2022-09-07T00:06:54.221Z,15.36
2022-09-07T00:07:54.205Z,15.37
2022-09-07T00:08:54.206Z,15.40
2022-09-07T00:09:54.160Z,15.44
2022-09-07T00:10:54.153Z,15.50
2022-09-07T00:11:54.166Z,15.56
2022-09-07T00:12:54.150Z,15.61
2022-09-07T00:13:54.115Z,15.65
2022-09-07T00:14:54.106Z,15.68
2022-09-07T00:15:54.139Z,15.70
2022-09-07T00:16:54.138Z,15.70
2022-09-07T00:17:54.080Z,15.70
2022-09-07T00:18:54.062Z,15.69
2022-09-07T00:19:54.043Z,15.67
2022-09-07T00:20:54.021Z,15.65
2022-09-07T00:21:54.045Z,15.62
2022-09-07T00:22:56.626Z,15.59
2022-09-07T00:23:53.987Z,15.56
2022-09-07T00:24:53.948Z,15.51
2022-09-07T00:25:54.261Z,15.47
2022-09-07T00:26:53.918Z,15.43
2022-09-07T00:27:53.918Z,15.39
2022-09-07T00:28:53.904Z,15.35
2022-09-07T00:29:53.900Z,15.30
2022-09-07T00:30:53.892Z,15.25
2022-09-07T00:31:53.913Z,15.21
2022-09-07T00:32:53.869Z,15.18
2022-09-07T00:33:53.853Z,15.16
2022-09-07T00:34:53.834Z,15.14
2022-09-07T00:35:53.802Z,15.13
2022-09-07T00:36:53.816Z,15.10
2022-09-07T00:37:53.781Z,15.07
2022-09-07T00:38:53.777Z,15.03
2022-09-07T00:39:53.837Z,14.98
2022-09-07T00:40:53.732Z,14.94
2022-09-07T00:41:53.739Z,14.90
2022-09-07T00:42:53.722Z,14.85
2022-09-07T00:43:53.746Z,14.81
2022-09-07T00:44:53.680Z,14.77
2022-09-07T00:45:53.694Z,14.74
2022-09-07T00:46:53.730Z,14.72
2022-09-07T00:47:53.690Z,14.71
2022-09-07T00:48:53.648Z,14.69
2022-09-07T00:49:53.646Z,14.68
2022-09-07T00:50:53.609Z,14.67
2022-09-07T00:51:53.605Z,14.65
2022-09-07T00:52:53.581Z,14.64
2022-09-07T00:53:53.600Z,14.63
2022-09-07T00:54:53.567Z,14.60
2022-09-07T00:55:53.540Z,14.56
2022-09-07T00:56:53.587Z,14.52
2022-09-07T00:57:56.674Z,14.49
2022-09-07T00:58:53.521Z,14.50
2022-09-07T00:59:53.521Z,14.51
2022-09-07T01:00:53.470Z,14.51
2022-09-07T01:01:53.589Z,14.53
2022-09-07T01:02:53.588Z,14.56
2022-09-07T01:03:53.470Z,14.59
2022-09-07T01:04:53.431Z,14.62
2022-09-07T01:05:53.433Z,14.64
2022-09-07T01:06:53.410Z,14.63
2022-09-07T01:07:53.402Z,14.60
2022-09-07T01:08:53.393Z,14.56
2022-09-07T01:09:53.403Z,14.51
2022-09-07T01:10:53.335Z,14.46
2022-09-07T01:11:53.325Z,14.44
2022-09-07T01:12:53.345Z,14.42
2022-09-07T01:13:53.327Z,14.41
2022-09-07T01:14:53.313Z,14.41
2022-09-07T01:15:53.342Z,14.40
2022-09-07T01:16:53.318Z,14.38
2022-09-07T01:17:53.249Z,14.35
2022-09-07T01:18:53.240Z,14.31
2022-09-07T01:19:53.244Z,14.30
2022-09-07T01:20:53.221Z,14.31
2022-09-07T01:21:53.203Z,14.34
2022-09-07T01:22:53.199Z,14.37
2022-09-07T01:23:53.173Z,14.38
2022-09-07T01:24:53.175Z,14.35
2022-09-07T01:25:53.208Z,14.31
2022-09-07T01:26:53.169Z,14.26
2022-09-07T01:27:53.113Z,14.20
2022-09-07T01:28:53.111Z,14.14
2022-09-07T01:29:53.124Z,14.08
2022-09-07T01:30:53.121Z,14.04
2022-09-07T01:31:53.118Z,14.00
2022-09-07T01:32:53.099Z,13.97
2022-09-07T01:33:53.089Z,13.95
2022-09-07T01:34:53.088Z,13.93
2022-09-07T01:35:53.068Z,13.91
2022-09-07T01:36:53.060Z,13.88
2022-09-07T01:37:56.921Z,13.85
2022-09-07T01:38:53.068Z,13.84
2022-09-07T01:39:53.086Z,13.83
2022-09-07T01:40:52.971Z,13.84
2022-09-07T01:41:52.965Z,13.86
2022-09-07T01:42:52.917Z,13.87
2022-09-07T01:43:52.937Z,13.90
2022-09-07T01:44:52.913Z,13.93
2022-09-07T01:45:52.958Z,13.97
2022-09-07T01:46:52.883Z,14.01
2022-09-07T01:47:52.872Z,14.07
2022-09-07T01:48:52.845Z,14.12
2022-09-07T01:49:52.848Z,14.16
2022-09-07T01:50:52.806Z,14.19
2022-09-07T01:51:52.865Z,14.20
2022-09-07T01:52:55.845Z,14.20
2022-09-07T01:53:52.806Z,14.18
2022-09-07T01:54:52.791Z,14.15
2022-09-07T01:55:52.756Z,14.11
2022-09-07T01:56:52.726Z,14.08
2022-09-07T01:57:52.714Z,14.06
2022-09-07T01:58:52.728Z,14.04
2022-09-07T01:59:52.699Z,14.05
2022-09-07T02:00:52.716Z,14.07
2022-09-07T02:01:52.754Z,14.09
2022-09-07T02:02:52.726Z,14.08
2022-09-07T02:03:52.636Z,14.07
2022-09-07T02:04:52.652Z,14.06
2022-09-07T02:05:52.603Z,14.05
2022-09-07T02:06:52.629Z,14.05
2022-09-07T02:07:52.607Z,14.06
2022-09-07T02:08:52.576Z,14.06
2022-09-07T02:09:52.580Z,14.05
2022-09-07T02:10:52.589Z,14.02
2022-09-07T02:11:52.540Z,13.99
2022-09-07T02:12:52.521Z,13.96
2022-09-07T02:13:52.525Z,13.93
2022-09-07T02:14:52.916Z,13.90
2022-09-07T02:15:52.542Z,13.88
2022-09-07T02:16:52.492Z,13.87
2022-09-07T02:17:52.446Z,13.85
2022-09-07T02:18:52.438Z,13.82
2022-09-07T02:19:52.451Z,13.79
2022-09-07T02:20:52.861Z,13.75
2022-09-07T02:21:52.395Z,13.72
2022-09-07T02:22:52.416Z,13.72
2022-09-07T02:23:52.399Z,13.71
2022-09-07T02:24:52.394Z,13.70
2022-09-07T02:25:52.388Z,13.68
2022-09-07T02:26:52.374Z,13.67
2022-09-07T02:27:52.352Z,13.66
2022-09-07T02:28:52.306Z,13.65
2022-09-07T02:29:52.293Z,13.64
2022-09-07T02:30:52.347Z,13.64
2022-09-07T02:31:52.257Z,13.63
2022-09-07T02:32:52.271Z,13.61
2022-09-07T02:33:52.302Z,13.59
2022-09-07T02:34:52.263Z,13.57
2022-09-07T02:35:52.203Z,13.54
2022-09-07T02:36:52.239Z,13.53
2022-09-07T02:37:52.220Z,13.54
2022-09-07T02:38:52.173Z,13.55
2022-09-07T02:39:52.213Z,13.55
2022-09-07T02:40:52.191Z,13.54
2022-09-07T02:41:52.138Z,13.52
2022-09-07T02:42:55.813Z,13.50
2022-09-07T02:43:52.114Z,13.48
2022-09-07T02:44:52.093Z,13.47
2022-09-07T02:45:52.127Z,13.46
2022-09-07T02:46:52.107Z,13.46
2022-09-07T02:47:52.054Z,13.48
2022-09-07T02:48:52.045Z,13.50
2022-09-07T02:49:52.062Z,13.52
2022-09-07T02:50:52.015Z,13.52
2022-09-07T02:51:52.009Z,13.51
2022-09-07T02:52:52.019Z,13.51
2022-09-07T02:53:51.997Z,13.51
2022-09-07T02:54:51.975Z,13.51
2022-09-07T02:55:51.964Z,13.50
2022-09-07T02:56:51.928Z,13.48
2022-09-07T02:57:51.935Z,13.46
2022-09-07T02:58:51.925Z,13.44
2022-09-07T02:59:51.915Z,13.44
2022-09-07T03:00:51.879Z,13.44
2022-09-07T03:01:51.953Z,13.44
2022-09-07T03:02:51.981Z,13.44
2022-09-07T03:03:51.898Z,13.43
2022-09-07T03:04:51.828Z,13.41
2022-09-07T03:05:51.824Z,13.40
2022-09-07T03:06:51.836Z,13.40
2022-09-07T03:07:51.802Z,13.39
2022-09-07T03:08:51.777Z,13.37
2022-09-07T03:09:51.756Z,13.34
2022-09-07T03:10:51.779Z,13.31
2022-09-07T03:11:51.723Z,13.28
2022-09-07T03:12:51.753Z,13.27
2022-09-07T03:13:51.727Z,13.25
2022-09-07T03:14:51.712Z,13.21
2022-09-07T03:15:55.744Z,13.17
2022-09-07T03:16:51.990Z,13.12
2022-09-07T03:17:51.668Z,13.06
2022-09-07T03:18:51.659Z,13.00
2022-09-07T03:19:51.653Z,12.95
2022-09-07T03:20:51.637Z,12.90
2022-09-07T03:21:51.615Z,12.86
2022-09-07T03:22:51.598Z,12.83
2022-09-07T03:23:52.023Z,12.80
2022-09-07T03:24:51.575Z,12.77
2022-09-07T03:25:51.589Z,12.74
2022-09-07T03:26:51.534Z,12.70
2022-09-07T03:27:51.528Z,12.67
2022-09-07T03:28:51.517Z,12.65
2022-09-07T03:29:51.517Z,12.62
2022-09-07T03:30:51.548Z,12.59
2022-09-07T03:31:51.495Z,12.56
2022-09-07T03:32:51.480Z,12.55
2022-09-07T03:33:51.458Z,12.55
2022-09-07T03:34:51.459Z,12.56
2022-09-07T03:35:51.448Z,12.56
2022-09-07T03:36:51.419Z,12.56
2022-09-07T03:37:51.386Z,12.56
2022-09-07T03:38:51.378Z,12.56
2022-09-07T03:39:51.408Z,12.55
2022-09-07T03:40:51.356Z,12.54
2022-09-07T03:41:51.355Z,12.55
2022-09-07T03:42:51.343Z,12.56
2022-09-07T03:43:51.327Z,12.57
2022-09-07T03:44:51.324Z,12.59
2022-09-07T03:45:51.385Z,12.59
2022-09-07T03:46:51.285Z,12.58
2022-09-07T03:47:51.272Z,12.57
2022-09-07T03:48:51.268Z,12.57
2022-09-07T03:49:51.228Z,12.59
2022-09-07T03:50:51.237Z,12.61
2022-09-07T03:51:51.212Z,12.62
2022-09-07T03:52:51.214Z,12.63
2022-09-07T03:53:51.179Z,12.65
2022-09-07T03:54:51.220Z,12.68
2022-09-07T03:55:51.146Z,12.72
2022-09-07T03:56:51.168Z,12.74
2022-09-07T03:57:51.159Z,12.77
2022-09-07T03:58:51.107Z,12.80
2022-09-07T03:59:51.117Z,12.83
2022-09-07T04:00:51.083Z,12.86
2022-09-07T04:01:51.128Z,12.88
2022-09-07T04:02:51.127Z,12.91
2022-09-07T04:03:51.054Z,12.93
2022-09-07T04:04:51.036Z,12.94
2022-09-07T04:05:51.026Z,12.95
2022-09-07T04:06:51.032Z,12.97
2022-09-07T04:07:51.029Z,12.98
2022-09-07T04:08:50.975Z,13.00
2022-09-07T04:09:50.969Z,13.00
2022-09-07T04:10:50.959Z,12.99
2022-09-07T04:11:50.989Z,12.97
2022-09-07T04:12:50.943Z,12.96
2022-09-07T04:13:50.946Z,12.97
2022-09-07T04:14:50.945Z,12.96
2022-09-07T04:15:53.801Z,12.94
2022-09-07T04:16:51.058Z,12.91
2022-09-07T04:17:50.877Z,12.89
2022-09-07T04:18:50.878Z,12.87
2022-09-07T04:19:50.861Z,12.84
2022-09-07T04:20:50.850Z,12.81
2022-09-07T04:21:50.802Z,12.79
2022-09-07T04:22:54.213Z,12.75
2022-09-07T04:23:50.770Z,12.73
2022-09-07T04:24:50.765Z,12.72
2022-09-07T04:25:50.767Z,12.72
2022-09-07T04:26:50.765Z,12.72
2022-09-07T04:27:50.751Z,12.73
2022-09-07T04:28:50.729Z,12.74
2022-09-07T04:29:50.693Z,12.75
2022-09-07T04:30:50.744Z,12.76
2022-09-07T04:31:50.678Z,12.80
2022-09-07T04:32:50.684Z,12.85
2022-09-07T04:33:50.669Z,12.89
2022-09-07T04:34:50.630Z,12.91
2022-09-07T04:35:50.628Z,12.93
2022-09-07T04:36:50.638Z,12.94
2022-09-07T04:37:50.592Z,12.94
2022-09-07T04:38:50.581Z,12.94
2022-09-07T04:39:50.646Z,12.95
2022-09-07T04:40:50.602Z,12.96
2022-09-07T04:41:50.554Z,12.96
2022-09-07T04:42:50.523Z,12.95
2022-09-07T04:43:50.506Z,12.96
2022-09-07T04:44:50.541Z,12.99
2022-09-07T04:45:50.599Z,13.00
2022-09-07T04:46:50.510Z,13.00
2022-09-07T04:47:50.486Z,12.99
2022-09-07T04:48:50.473Z,12.97
2022-09-07T04:49:50.473Z,12.95
2022-09-07T04:50:50.441Z,12.92
2022-09-07T04:51:50.399Z,12.89
2022-09-07T04:52:50.401Z,12.87
2022-09-07T04:53:50.389Z,12.85
2022-09-07T04:54:50.389Z,12.83
2022-09-07T04:55:50.367Z,12.83
2022-09-07T04:56:50.364Z,12.84
2022-09-07T04:57:50.332Z,12.85
2022-09-07T04:58:50.347Z,12.88
2022-09-07T04:59:50.294Z,12.91
2022-09-07T05:00:50.350Z,12.95
2022-09-07T05:01:50.283Z,12.98
2022-09-07T05:02:50.343Z,13.01
2022-09-07T05:03:50.260Z,13.03
2022-09-07T05:04:50.240Z,13.07
2022-09-07T05:05:50.250Z,13.11
2022-09-07T05:06:50.218Z,13.16
2022-09-07T05:07:50.207Z,13.19
2022-09-07T05:08:50.177Z,13.20
2022-09-07T05:09:50.179Z,13.21
2022-09-07T05:10:50.168Z,13.23
2022-09-07T05:11:50.173Z,13.24
2022-09-07T05:12:50.145Z,13.25
2022-09-07T05:13:50.107Z,13.25
2022-09-07T05:14:50.152Z,13.25
2022-09-07T05:15:50.077Z,13.26
2022-09-07T05:16:50.224Z,13.28
2022-09-07T05:17:50.069Z,13.29
2022-09-07T05:18:50.068Z,13.29
2022-09-07T05:19:50.042Z,13.31
2022-09-07T05:20:50.044Z,13.33
2022-09-07T05:21:50.030Z,13.36
2022-09-07T05:22:49.990Z,13.37
2022-09-07T05:23:49.993Z,13.38
2022-09-07T05:24:49.983Z,13.40
2022-09-07T05:25:49.963Z,13.44
2022-09-07T05:26:49.960Z,13.49
2022-09-07T05:27:49.954Z,13.53
2022-09-07T05:28:50.422Z,13.54
2022-09-07T05:30:06.157Z,13.54
2022-09-07T05:31:49.916Z,13.56
2022-09-07T05:32:49.859Z,13.56
2022-09-07T05:34:52.841Z,13.57
2022-09-07T05:35:49.831Z,13.59
2022-09-07T05:36:49.826Z,13.62
2022-09-07T05:37:49.847Z,13.65
2022-09-07T05:38:49.798Z,13.66
2022-09-07T05:39:49.809Z,13.66
2022-09-07T05:40:49.763Z,13.67
2022-09-07T05:41:49.735Z,13.70
2022-09-07T05:42:49.726Z,13.73
2022-09-07T05:44:49.744Z,13.78
2022-09-07T05:45:49.758Z,13.81
2022-09-07T05:46:49.667Z,13.82
2022-09-07T05:47:49.648Z,13.83
2022-09-07T05:48:49.646Z,13.84
2022-09-07T05:49:51.933Z,13.86
2022-09-07T05:50:49.679Z,13.88
2022-09-07T05:51:49.628Z,13.89
2022-09-07T05:52:49.589Z,13.90
2022-09-07T05:53:49.601Z,13.91
2022-09-07T05:54:49.584Z,13.93
2022-09-07T05:55:49.563Z,13.95
2022-09-07T05:56:49.555Z,13.96
2022-09-07T05:57:49.541Z,13.97
2022-09-07T05:58:49.550Z,13.99
2022-09-07T05:59:49.511Z,14.02
2022-09-07T06:00:49.492Z,14.07
2022-09-07T06:01:49.641Z,14.11
2022-09-07T06:02:49.622Z,14.15
2022-09-07T06:03:49.446Z,14.18
2022-09-07T06:04:49.440Z,14.21
2022-09-07T06:05:49.450Z,14.26
2022-09-07T06:07:17.687Z,14.32
2022-09-07T06:07:49.409Z,14.38
2022-09-07T06:08:49.381Z,14.42
2022-09-07T06:10:49.383Z,14.51
2022-09-07T06:11:49.364Z,14.56
2022-09-07T06:12:49.604Z,14.60
2022-09-07T06:13:49.342Z,14.63
2022-09-07T06:14:49.315Z,14.68
2022-09-07T06:15:49.292Z,14.73
2022-09-07T06:16:49.343Z,14.78
2022-09-07T06:17:49.275Z,14.81
2022-09-07T06:18:49.244Z,14.86
2022-09-07T06:19:49.286Z,14.91
2022-09-07T06:20:49.223Z,14.95
2022-09-07T06:21:49.229Z,14.98
2022-09-07T06:22:49.233Z,15.00
2022-09-07T06:23:49.211Z,15.01
2022-09-07T06:24:49.182Z,15.05
2022-09-07T06:25:49.162Z,15.10
2022-09-07T06:26:49.154Z,15.17
2022-09-07T06:27:49.135Z,15.24
2022-09-07T06:28:51.403Z,15.30
2022-09-07T06:29:49.109Z,15.33
2022-09-07T06:30:49.110Z,15.35
2022-09-07T06:32:49.091Z,15.43
2022-09-07T06:33:49.075Z,15.50
2022-09-07T06:34:49.049Z,15.56
2022-09-07T06:35:49.074Z,15.60
2022-09-07T06:36:49.021Z,15.57
2022-09-07T06:37:49.032Z,15.55
2022-09-07T06:38:49.000Z,15.58
2022-09-07T06:39:49.074Z,15.64
2022-09-07T06:40:49.035Z,15.70
2022-09-07T06:42:04.391Z,15.74
2022-09-07T06:42:48.968Z,15.76
2022-09-07T06:43:48.936Z,15.73
2022-09-07T06:44:48.921Z,15.70
2022-09-07T06:45:48.990Z,15.70
2022-09-07T06:47:04.731Z,15.70
2022-09-07T06:47:48.889Z,15.70
2022-09-07T06:48:48.890Z,15.72
2022-09-07T06:49:48.857Z,15.75
2022-09-07T06:50:48.844Z,15.76
2022-09-07T06:51:48.840Z,15.75
2022-09-07T06:53:49.079Z,15.76
2022-09-07T06:55:48.786Z,15.77
2022-09-07T06:56:48.743Z,15.74
2022-09-07T06:57:48.738Z,15.74
2022-09-07T06:58:48.783Z,15.75
2022-09-07T06:59:48.727Z,15.78
2022-09-07T07:00:48.767Z,15.82
2022-09-07T07:01:48.694Z,15.87
2022-09-07T07:02:48.724Z,15.94
2022-09-07T07:03:48.664Z,16.03
2022-09-07T07:04:48.693Z,16.11
2022-09-07T07:05:48.675Z,16.17
2022-09-07T07:06:48.609Z,16.22
2022-09-07T07:07:48.633Z,16.29
2022-09-07T07:08:48.617Z,16.36
2022-09-07T07:09:48.621Z,16.40
2022-09-07T07:10:48.585Z,16.43
2022-09-07T07:11:48.601Z,16.48
2022-09-07T07:12:48.560Z,16.51
2022-09-07T07:13:48.567Z,16.53
2022-09-07T07:14:48.516Z,16.56
2022-09-07T07:15:48.528Z,16.59
2022-09-07T07:16:48.629Z,16.62
2022-09-07T07:17:56.092Z,16.68
2022-09-07T07:18:48.479Z,16.75
2022-09-07T07:19:48.477Z,16.84
2022-09-07T07:20:48.511Z,16.91
2022-09-07T07:22:10.907Z,16.99
2022-09-07T07:22:48.457Z,17.02
2022-09-07T07:23:48.448Z,17.02
2022-09-07T07:24:48.468Z,17.04
2022-09-07T07:25:48.413Z,17.11
2022-09-07T07:26:48.423Z,17.21
2022-09-07T07:27:48.411Z,17.29
2022-09-07T07:29:04.290Z,17.35
2022-09-07T07:29:48.339Z,17.36
2022-09-07T07:30:48.370Z,17.34
2022-09-07T07:31:48.300Z,17.31
2022-09-07T07:32:48.331Z,17.34
2022-09-07T07:33:48.400Z,17.40
2022-09-07T07:34:48.248Z,17.48
2022-09-07T07:35:48.320Z,17.57
2022-09-07T07:36:48.221Z,17.67
2022-09-07T07:37:48.236Z,17.74
2022-09-07T07:39:03.587Z,17.82
2022-09-07T07:41:57.401Z,18.07
2022-09-07T07:42:48.171Z,18.13
2022-09-07T07:43:48.143Z,18.21
2022-09-07T07:44:48.691Z,18.31
2022-09-07T07:45:55.515Z,18.38
2022-09-07T07:46:48.197Z,18.44
2022-09-07T07:47:48.100Z,18.50
2022-09-07T07:48:48.072Z,18.54
2022-09-07T07:49:48.276Z,18.58
2022-09-07T07:50:48.037Z,18.61
2022-09-07T07:53:41.068Z,18.62
2022-09-07T07:53:48.012Z,18.63
2022-09-07T07:54:48.002Z,18.62
2022-09-07T07:55:48.027Z,18.59
2022-09-07T07:56:47.975Z,18.53
2022-09-07T07:57:48.037Z,18.48
2022-09-07T07:58:47.975Z,18.44
2022-09-07T07:59:47.964Z,18.44
2022-09-07T08:00:56.050Z,18.45
2022-09-07T08:01:48.009Z,18.49
2022-09-07T08:02:47.919Z,18.58
2022-09-07T08:03:47.891Z,18.72
2022-09-07T08:04:47.868Z,18.86
2022-09-07T08:05:47.841Z,18.98
2022-09-07T08:06:47.872Z,19.12
2022-09-07T08:07:47.824Z,19.26
2022-09-07T08:08:47.793Z,19.39
2022-09-07T08:09:47.825Z,19.52
2022-09-07T08:10:47.904Z,19.69
2022-09-07T08:11:47.818Z,19.85
2022-09-07T08:12:47.762Z,19.88
2022-09-07T08:13:47.730Z,19.78
2022-09-07T08:14:47.751Z,19.69
2022-09-07T08:15:47.751Z,19.68
2022-09-07T08:16:47.741Z,19.75
2022-09-07T08:17:47.712Z,19.88
2022-09-07T08:18:47.695Z,20.08
2022-09-07T08:19:47.739Z,20.28
2022-09-07T08:20:48.425Z,20.42
2022-09-07T08:21:47.723Z,20.51
2022-09-07T08:22:47.657Z,20.59
2022-09-07T08:23:47.600Z,20.59
2022-09-07T08:24:47.603Z,20.58
2022-09-07T08:25:47.602Z,20.62
2022-09-07T08:26:47.590Z,20.57
2022-09-07T08:27:47.572Z,20.50
2022-09-07T08:28:47.559Z,20.49
2022-09-07T08:29:47.537Z,20.61
2022-09-07T08:30:47.523Z,20.88
2022-09-07T08:31:47.594Z,21.12
2022-09-07T08:32:47.541Z,21.28
2022-09-07T08:33:47.485Z,21.30
2022-09-07T08:34:47.476Z,21.28
2022-09-07T08:35:47.506Z,21.29
2022-09-07T08:36:47.442Z,21.26
2022-09-07T08:37:47.445Z,21.19
2022-09-07T08:38:47.435Z,21.17
2022-09-07T08:39:47.482Z,21.32
2022-09-07T08:40:47.401Z,21.59
2022-09-07T08:41:47.377Z,21.83
2022-09-07T08:42:47.390Z,21.89
2022-09-07T08:43:49.206Z,21.96
2022-09-07T08:44:47.334Z,22.20
2022-09-07T08:45:47.367Z,22.59
2022-09-07T08:46:47.452Z,22.98
2022-09-07T08:47:47.316Z,23.16
2022-09-07T08:48:47.287Z,23.19
2022-09-07T08:49:47.308Z,23.23
2022-09-07T08:50:47.291Z,23.38
2022-09-07T08:51:47.275Z,23.54
2022-09-07T08:52:47.252Z,23.66
2022-09-07T08:53:47.323Z,23.63
2022-09-07T08:54:47.198Z,23.46
2022-09-07T08:55:47.205Z,23.42
2022-09-07T08:57:47.195Z,23.13
2022-09-07T08:58:49.855Z,23.03
2022-09-07T08:59:47.157Z,23.10
2022-09-07T09:00:47.134Z,23.16
2022-09-07T09:02:27.132Z,23.15
2022-09-07T09:03:28.753Z,23.21
2022-09-07T09:05:47.181Z,23.37
2022-09-07T09:06:47.159Z,23.61
2022-09-07T09:07:47.048Z,23.88
2022-09-07T09:08:47.050Z,24.06
2022-09-07T09:09:47.033Z,24.20
2022-09-07T09:10:47.047Z,24.31
2022-09-07T09:11:47.030Z,24.44
2022-09-07T09:12:46.987Z,24.64
2022-09-07T09:13:46.978Z,24.75
2022-09-07T09:14:46.983Z,24.81
2022-09-07T09:15:47.006Z,24.87
2022-09-07T09:16:46.947Z,24.94
2022-09-07T09:17:46.953Z,24.95
2022-09-07T09:18:46.928Z,24.78
2022-09-07T09:19:46.915Z,24.50
2022-09-07T09:20:46.905Z,24.43
2022-09-07T09:21:46.966Z,24.53
2022-09-07T09:22:46.872Z,24.63
2022-09-07T09:23:46.848Z,24.85
2022-09-07T09:24:46.865Z,25.02
2022-09-07T09:25:46.836Z,24.89
2022-09-07T09:26:46.891Z,24.69
2022-09-07T09:27:46.807Z,24.57
2022-09-07T09:28:46.774Z,24.53
2022-09-07T09:29:46.767Z,24.50
2022-09-07T09:30:46.916Z,24.36
2022-09-07T09:31:46.839Z,24.24
2022-09-07T09:32:46.769Z,24.25
2022-09-07T09:33:46.754Z,24.32
2022-09-07T09:34:46.723Z,24.41
2022-09-07T09:35:46.694Z,24.44
2022-09-07T09:36:46.704Z,24.52
2022-09-07T09:37:46.726Z,24.55
2022-09-07T09:38:46.669Z,24.61
2022-09-07T09:39:49.022Z,24.80
2022-09-07T09:40:46.642Z,24.92
2022-09-07T09:41:46.647Z,24.92
2022-09-07T09:42:46.606Z,24.69
2022-09-07T09:43:46.632Z,24.42
2022-09-07T09:44:46.608Z,24.33
2022-09-07T09:46:47.012Z,24.23
2022-09-07T09:47:46.607Z,24.32
2022-09-07T09:48:46.664Z,24.40
2022-09-07T09:49:46.528Z,24.68
2022-09-07T09:52:51.579Z,25.13
2022-09-07T09:53:46.482Z,25.08
2022-09-07T09:54:46.464Z,24.91
2022-09-07T09:55:46.481Z,24.78
2022-09-07T09:56:46.437Z,24.87
2022-09-07T09:59:04.858Z,25.08
2022-09-07T10:00:08.822Z,25.80
2022-09-07T10:04:46.364Z,27.01
2022-09-07T10:05:46.407Z,26.77
2022-09-07T10:06:46.313Z,26.47
2022-09-07T10:07:46.324Z,26.25
2022-09-07T10:08:46.326Z,26.02
2022-09-07T10:09:46.297Z,25.80
2022-09-07T10:10:46.292Z,25.83
2022-09-07T10:12:46.262Z,26.10
2022-09-07T10:13:46.848Z,26.16
2022-09-07T10:14:46.273Z,26.27
2022-09-07T10:15:46.257Z,26.33
2022-09-07T10:16:46.229Z,26.27
2022-09-07T10:17:46.200Z,26.20
2022-09-07T10:18:46.175Z,26.10
2022-09-07T10:19:46.185Z,26.08
2022-09-07T10:20:46.160Z,26.06
2022-09-07T10:21:46.136Z,26.00
2022-09-07T10:22:49.664Z,25.98
2022-09-07T10:23:46.349Z,25.95
2022-09-07T10:24:46.126Z,25.71
2022-09-07T10:25:46.154Z,25.48
2022-09-07T10:26:46.090Z,25.54
2022-09-07T10:27:46.089Z,25.64
2022-09-07T10:29:46.093Z,25.31
2022-09-07T10:30:46.103Z,25.09
2022-09-07T10:31:46.022Z,24.88
2022-09-07T10:32:46.032Z,24.68
2022-09-07T10:34:25.798Z,24.56
2022-09-07T10:34:46.000Z,24.47
2022-09-07T10:35:45.958Z,24.38
2022-09-07T10:36:45.983Z,24.35
2022-09-07T10:37:45.939Z,24.35
2022-09-07T10:38:45.928Z,24.36
2022-09-07T10:39:48.277Z,24.29
2022-09-07T10:40:45.904Z,24.20
2022-09-07T10:41:45.909Z,24.17
2022-09-07T10:43:45.919Z,24.01
2022-09-07T10:44:45.893Z,23.89
2022-09-07T10:45:45.858Z,23.76
2022-09-07T10:47:01.182Z,23.67
2022-09-07T10:47:45.812Z,23.64
2022-09-07T10:48:45.815Z,23.65
2022-09-07T10:50:46.033Z,23.81
2022-09-07T10:51:45.769Z,23.85
2022-09-07T10:52:45.791Z,23.76
2022-09-07T10:53:45.735Z,23.67
2022-09-07T10:54:45.756Z,23.57
2022-09-07T10:55:45.784Z,23.48
2022-09-07T10:56:45.781Z,23.48
2022-09-07T10:57:49.037Z,23.49
2022-09-07T10:59:01.856Z,23.48
2022-09-07T11:00:45.671Z,23.58
2022-09-07T11:01:45.832Z,23.54
2022-09-07T11:03:24.970Z,23.46
2022-09-07T11:03:45.945Z,23.37
2022-09-07T11:04:45.740Z,23.29
2022-09-07T11:05:46.504Z,23.25
2022-09-07T11:06:45.820Z,23.25
2022-09-07T11:07:45.688Z,23.24
2022-09-07T11:09:45.552Z,23.13
2022-09-07T11:10:45.534Z,23.13
2022-09-07T11:12:01.453Z,23.21
2022-09-07T11:12:45.525Z,23.28
2022-09-07T11:14:11.442Z,23.30
2022-09-07T11:14:45.486Z,23.30
2022-09-07T11:15:45.521Z,23.31
2022-09-07T11:16:52.647Z,23.34
2022-09-07T11:17:48.325Z,23.35
2022-09-07T11:18:45.446Z,23.35
2022-09-07T11:19:45.437Z,23.40
2022-09-07T11:20:45.412Z,23.49
2022-09-07T11:22:00.782Z,23.64
2022-09-07T11:22:45.387Z,23.81
2022-09-07T11:23:45.512Z,23.82
2022-09-07T11:24:45.463Z,23.75
2022-09-07T11:25:46.671Z,23.70
2022-09-07T11:26:45.351Z,23.66
2022-09-07T11:27:45.309Z,23.63
2022-09-07T11:28:45.615Z,23.68
2022-09-07T11:29:45.271Z,23.82
2022-09-07T11:30:45.317Z,24.03
2022-09-07T11:31:45.263Z,24.18
2022-09-07T11:32:45.256Z,24.30
2022-09-07T11:34:23.686Z,24.47
2022-09-07T11:34:45.345Z,24.68
2022-09-07T11:35:45.198Z,24.83
2022-09-07T11:36:45.204Z,24.97
2022-09-07T11:37:45.232Z,25.24
2022-09-07T11:38:45.249Z,25.41
2022-09-07T11:39:45.690Z,25.26
2022-09-07T11:40:45.191Z,25.11
2022-09-07T11:41:45.137Z,25.11
2022-09-07T11:42:45.402Z,25.18
2022-09-07T11:43:45.150Z,25.27
2022-09-07T11:44:45.105Z,25.17
2022-09-07T11:45:45.074Z,24.91
2022-09-07T11:46:45.527Z,24.74
2022-09-07T11:47:45.316Z,24.64
2022-09-07T11:48:45.112Z,24.46
2022-09-07T11:49:50.805Z,24.23
2022-09-07T11:50:45.308Z,24.05
2022-09-07T11:51:45.021Z,23.90
2022-09-07T11:52:44.983Z,23.83
2022-09-07T11:53:45.046Z,23.85
2022-09-07T11:54:44.968Z,23.96
2022-09-07T11:55:44.959Z,24.11
2022-09-07T11:56:45.647Z,24.21
2022-09-07T11:57:44.918Z,24.23
2022-09-07T11:58:44.924Z,24.14
2022-09-07T11:59:44.901Z,24.01
2022-09-07T12:00:44.893Z,23.90
2022-09-07T12:01:44.887Z,23.82
2022-09-07T12:02:58.842Z,23.73
2022-09-07T12:03:44.984Z,23.69
2022-09-07T12:04:44.889Z,23.66
2022-09-07T12:05:44.816Z,23.64
2022-09-07T12:06:44.857Z,23.64
2022-09-07T12:07:44.818Z,23.62
2022-09-07T12:08:44.845Z,23.60
2022-09-07T12:09:44.761Z,23.68
2022-09-07T12:10:44.750Z,23.86
2022-09-07T12:11:44.749Z,24.12
2022-09-07T12:12:44.751Z,24.38
2022-09-07T12:13:44.807Z,24.54
2022-09-07T12:14:44.746Z,24.63
2022-09-07T12:15:45.025Z,24.69
2022-09-07T12:16:44.709Z,24.71
2022-09-07T12:17:44.670Z,24.74
2022-09-07T12:18:44.688Z,24.66
2022-09-07T12:19:44.641Z,24.59
2022-09-07T12:20:45.165Z,24.58
2022-09-07T12:21:44.944Z,24.56
2022-09-07T12:22:44.667Z,24.56
2022-09-07T12:23:44.604Z,24.45
2022-09-07T12:24:44.569Z,24.20
2022-09-07T12:25:44.682Z,23.99
2022-09-07T12:26:44.550Z,23.89
2022-09-07T12:27:44.581Z,23.91
2022-09-07T12:28:44.766Z,24.29
2022-09-07T12:29:45.660Z,24.81
2022-09-07T12:30:44.692Z,25.02
2022-09-07T12:31:57.539Z,24.95
2022-09-07T12:33:00.191Z,24.90
2022-09-07T12:33:44.962Z,24.85
2022-09-07T12:34:44.568Z,24.76
2022-09-07T12:35:44.429Z,24.70
2022-09-07T12:36:44.657Z,24.71
2022-09-07T12:37:44.512Z,24.75
2022-09-07T12:38:44.556Z,24.78
2022-09-07T12:39:44.441Z,24.79
2022-09-07T12:40:44.428Z,24.73
2022-09-07T12:41:44.768Z,24.68
2022-09-07T12:42:44.839Z,24.64
2022-09-07T12:43:44.343Z,24.54
2022-09-07T12:44:44.524Z,24.48
2022-09-07T12:45:44.322Z,24.54
2022-09-07T12:46:44.855Z,24.68
2022-09-07T12:47:44.291Z,24.84
2022-09-07T12:48:44.285Z,24.89
2022-09-07T12:49:44.270Z,24.80
2022-09-07T12:50:44.304Z,24.71
2022-09-07T12:52:03.258Z,24.66
2022-09-07T12:52:44.217Z,24.63
2022-09-07T12:53:44.206Z,24.65
2022-09-07T12:54:44.204Z,24.73
2022-09-07T12:56:44.988Z,24.85
2022-09-07T12:57:44.160Z,24.73
2022-09-07T12:58:44.156Z,24.61
2022-09-07T12:59:44.145Z,24.67
2022-09-07T13:00:44.115Z,24.79
2022-09-07T13:01:44.283Z,24.76
2022-09-07T13:02:44.203Z,24.74
2022-09-07T13:03:52.117Z,24.95
2022-09-07T13:04:44.071Z,25.28
2022-09-07T13:05:44.097Z,25.61
2022-09-07T13:07:44.067Z,25.93
2022-09-07T13:08:44.043Z,25.67
2022-09-07T13:09:44.020Z,25.37
2022-09-07T13:10:43.997Z,25.16
2022-09-07T13:11:44.030Z,25.01
2022-09-07T13:12:59.345Z,24.88
2022-09-07T13:14:43.993Z,24.69
2022-09-07T13:15:45.565Z,24.57
2022-09-07T13:17:44.165Z,24.44
2022-09-07T13:18:43.956Z,24.45
2022-09-07T13:19:43.873Z,24.51
2022-09-07T13:20:43.988Z,24.56
2022-09-07T13:21:43.865Z,24.54
2022-09-07T13:22:43.893Z,24.45
2022-09-07T13:23:45.461Z,24.35